Time;durP1;ratioP1;P1;durP2;ratioP2;P2;SDS_P1;SDS_P2;PMS_P1;PMS_P2;Temp;Humidity;BMP_temperature;BMP_pressure;BME280_temperature;BME280_humidity;BME280_pressure;Samples;Min_cycle;Max_cycle;Signal;HPM_P1;HPM_P2
2022/12/02 00:01:15;;;;;;;;;;;;;;;3.33;68.88;102642.56;5030060;28;19924;-64
2022/12/02 00:03:41;;;;;;;;;;;;;;;3.34;68.83;102641.72;5030133;28;20003;-69
2022/12/02 00:06:12;;;;;;;;;;;;;;;3.37;68.75;102642.59;5027120;28;19917;-65
2022/12/02 00:08:37;;;;;;;;;;;;;;;3.37;68.70;102648.66;5032780;28;19918;-66
2022/12/02 00:11:07;;;;;;;;;;;;;;;3.35;68.90;102645.16;5030092;28;19924;-64
2022/12/02 00:13:36;;;;;;;;;;;;;;;3.35;68.76;102640.84;5029917;28;20335;-65
2022/12/02 00:16:03;;;;;;;;;;;;;;;3.37;68.67;102642.59;5028821;28;19924;-66
2022/12/02 00:18:28;;;;;;;;;;;;;;;3.37;68.86;102635.63;5030719;28;20497;-64
2022/12/02 00:20:54;;;;;;;;;;;;;;;3.30;69.21;102639.97;5029030;28;20395;-64
2022/12/02 00:23:20;;;;;;;;;;;;;;;3.31;69.10;102641.69;5039100;28;19944;-66
2022/12/02 00:25:46;;;;;;;;;;;;;;;3.30;69.07;102641.72;5017902;28;20055;-68
2022/12/02 00:28:12;;;;;;;;;;;;;;;3.28;69.34;102636.47;5035721;28;19913;-66
2022/12/02 00:30:38;;;;;;;;;;;;;;;3.29;69.20;102637.38;5029821;28;20013;-66
2022/12/02 00:33:03;;;;;;;;;;;;;;;3.32;69.08;102634.78;5030089;28;19929;-66
2022/12/02 00:35:28;;;;;;;;;;;;;;;3.34;69.22;102635.63;5007114;28;19971;-65
2022/12/02 00:37:53;;;;;;;;;;;;;;;3.34;69.27;102636.50;5030938;28;20013;-67
2022/12/02 00:40:19;;;;;;;;;;;;;;;3.35;69.09;102634.75;5030849;28;19944;-67
2022/12/02 00:42:44;;;;;;;;;;;;;;;3.34;69.04;102636.50;5029984;28;19928;-64
2022/12/02 00:47:54;;;;;;;;;;;;;;;3.32;69.13;102630.44;5031822;28;20003;-65
2022/12/02 00:50:20;;;;;;;;;;;;;;;3.31;69.20;102628.69;5028796;28;19964;-67
2022/12/02 00:52:45;;;;;;;;;;;;;;;3.30;69.28;102624.34;5029896;28;19929;-65
2022/12/02 00:55:10;;;;;;;;;;;;;;;3.29;69.34;102620.00;5011660;28;19931;-65
2022/12/02 00:57:36;;;;;;;;;;;;;;;3.29;69.41;102612.19;5029390;28;19952;-67
2022/12/02 01:00:01;;;;;;;;;;;;;;;3.31;69.26;102607.88;5031039;28;20449;-67
2022/12/02 01:02:26;;;;;;;;;;;;;;;3.32;69.09;102624.38;5028209;28;19925;-66
2022/12/02 01:04:52;;;;;;;;;;;;;;;3.27;69.27;102613.91;5030340;28;19921;-65
2022/12/02 01:07:17;;;;;;;;;;;;;;;3.27;69.36;102626.06;5015580;28;20340;-64
2022/12/02 01:09:42;;;;;;;;;;;;;;;3.27;69.34;102628.69;5028176;28;20406;-66
2022/12/02 01:12:07;;;;;;;;;;;;;;;3.27;69.37;102626.94;5027288;28;19952;-62
2022/12/02 01:14:33;;;;;;;;;;;;;;;3.27;69.52;102632.13;5026561;28;19924;-65
2022/12/02 01:16:58;;;;;;;;;;;;;;;3.25;69.47;102630.41;5028726;28;19990;-67
2022/12/02 01:19:23;;;;;;;;;;;;;;;3.26;69.68;102625.19;5026722;28;20351;-70
2022/12/02 01:21:49;;;;;;;;;;;;;;;3.27;69.66;102628.69;5029312;28;19917;-66
2022/12/02 01:24:14;;;;;;;;;;;;;;;3.26;69.63;102622.59;5031364;28;20019;-63
2022/12/02 01:26:39;;;;;;;;;;;;;;;3.28;69.53;102626.06;5029088;28;19935;-65
2022/12/02 01:29:05;;;;;;;;;;;;;;;3.27;69.68;102626.94;5028094;28;19924;-65
2022/12/02 01:31:30;;;;;;;;;;;;;;;3.30;69.38;102629.53;5027140;28;19921;-63
2022/12/02 01:33:55;;;;;;;;;;;;;;;3.28;69.69;102623.47;5013972;28;19935;-64
2022/12/02 01:36:21;;;;;;;;;;;;;;;3.29;69.68;102624.34;5029413;28;20332;-67
2022/12/02 01:38:46;;;;;;;;;;;;;;;3.33;69.28;102632.16;5027883;28;19929;-64
2022/12/02 01:41:11;;;;;;;;;;;;;;;3.31;69.31;102623.47;5024079;28;19929;-67
2022/12/02 01:43:37;;;;;;;;;;;;;;;3.37;69.33;102621.78;5023418;28;20344;-64
2022/12/02 01:46:02;;;;;;;;;;;;;;;3.38;69.32;102618.31;5025908;28;19917;-69
2022/12/02 01:48:28;;;;;;;;;;;;;;;3.39;69.05;102620.06;5030212;28;19920;-67
2022/12/02 01:50:54;;;;;;;;;;;;;;;3.43;68.89;102616.56;5031383;28;19917;-66
2022/12/02 01:53:19;;;;;;;;;;;;;;;3.41;68.88;102607.88;5024710;28;19979;-65
2022/12/02 01:55:45;;;;;;;;;;;;;;;3.41;68.65;102611.38;5029003;28;19917;-64
2022/12/02 01:58:11;;;;;;;;;;;;;;;3.45;68.73;102612.25;5028797;28;19917;-65
2022/12/02 02:00:36;;;;;;;;;;;;;;;3.46;68.48;102612.25;5030865;28;19913;-66
2022/12/02 02:03:02;;;;;;;;;;;;;;;3.49;68.43;102614.00;5025672;28;19975;-66
2022/12/02 02:05:29;;;;;;;;;;;;;;;3.50;68.32;102607.91;5019152;28;20757;-64
2022/12/02 02:07:57;;;;;;;;;;;;;;;3.49;68.58;102606.19;5022253;28;19924;-63
2022/12/02 02:10:23;;;;;;;;;;;;;;;3.51;68.59;102605.31;5026309;28;19921;-65
2022/12/02 02:12:50;;;;;;;;;;;;;;;3.51;68.33;102600.09;5023135;28;19970;-68
2022/12/02 02:15:16;;;;;;;;;;;;;;;3.51;68.32;102604.44;5029557;28;19968;-67
2022/12/02 02:17:41;;;;;;;;;;;;;;;3.48;68.71;102604.44;5023593;28;19987;-64
2022/12/02 02:20:08;;;;;;;;;;;;;;;3.49;68.38;102607.03;5011317;28;19925;-66
2022/12/02 02:22:37;;;;;;;;;;;;;;;3.48;68.50;102609.66;5025484;28;19921;-64
2022/12/02 02:25:04;;;;;;;;;;;;;;;3.49;68.47;102608.78;5032584;28;19936;-66
2022/12/02 02:27:29;;;;;;;;;;;;;;;3.52;68.52;102608.78;5028126;28;20007;-67
2022/12/02 02:29:55;;;;;;;;;;;;;;;3.51;68.32;102604.44;5030951;28;20015;-67
2022/12/02 02:32:20;;;;;;;;;;;;;;;3.51;68.53;102612.25;5027486;28;20071;-65
2022/12/02 02:34:45;;;;;;;;;;;;;;;3.52;68.37;102611.41;5026247;28;20319;-64
2022/12/02 02:37:11;;;;;;;;;;;;;;;3.54;68.37;102614.00;5028525;28;19948;-67
2022/12/02 02:39:36;;;;;;;;;;;;;;;3.57;68.22;102608.78;5029181;28;19975;-66
2022/12/02 02:42:02;;;;;;;;;;;;;;;3.58;68.25;102606.19;5010757;28;19929;-66
2022/12/02 02:44:28;;;;;;;;;;;;;;;3.57;68.10;102607.06;5025086;28;19920;-68
2022/12/02 02:46:54;;;;;;;;;;;;;;;3.57;68.13;102607.06;5025750;28;19917;-69
2022/12/02 02:49:19;;;;;;;;;;;;;;;3.56;68.10;102600.09;5011058;28;19967;-67
2022/12/02 02:51:44;;;;;;;;;;;;;;;3.56;68.16;102602.69;5029871;28;19995;-65
2022/12/02 02:54:10;;;;;;;;;;;;;;;3.55;68.36;102608.81;5028588;28;20300;-67
2022/12/02 02:56:35;;;;;;;;;;;;;;;3.55;68.12;102601.00;5026037;28;21799;-66
2022/12/02 02:59:01;;;;;;;;;;;;;;;3.56;67.87;102607.91;5030300;28;19928;-65
2022/12/02 03:01:28;;;;;;;;;;;;;;;3.53;68.09;102607.94;5024010;28;19921;-66
2022/12/02 03:03:56;;;;;;;;;;;;;;;3.55;68.01;102602.72;5028232;28;19921;-67
2022/12/02 03:06:23;;;;;;;;;;;;;;;3.56;68.07;102592.28;5025610;28;19921;-65
2022/12/02 03:08:49;;;;;;;;;;;;;;;3.57;68.21;102601.84;5030353;28;20383;-64
2022/12/02 03:11:15;;;;;;;;;;;;;;;3.60;67.82;102608.81;5028823;28;19921;-65
2022/12/02 03:13:41;;;;;;;;;;;;;;;3.59;67.86;102605.31;5027169;28;20331;-67
2022/12/02 03:16:08;;;;;;;;;;;;;;;3.59;67.57;102597.50;5028013;28;20034;-66
2022/12/02 03:18:34;;;;;;;;;;;;;;;3.59;67.57;102597.50;5023928;28;19948;-65
2022/12/02 03:21:00;;;;;;;;;;;;;;;3.55;67.26;102595.78;5024323;28;19921;-64
2022/12/02 03:23:26;;;;;;;;;;;;;;;3.54;67.49;102599.25;5025268;28;20017;-65
2022/12/02 03:25:51;;;;;;;;;;;;;;;3.53;67.48;102596.63;5030470;28;19923;-66
2022/12/02 03:28:17;;;;;;;;;;;;;;;3.51;67.64;102592.28;5029437;28;19917;-67
2022/12/02 03:30:42;;;;;;;;;;;;;;;3.52;67.50;102587.97;5014335;28;19924;-66
2022/12/02 03:33:08;;;;;;;;;;;;;;;3.54;67.42;102587.97;5015953;28;19924;-67
2022/12/02 03:35:33;;;;;;;;;;;;;;;3.53;67.37;102586.22;5033152;28;19917;-67
2022/12/02 03:37:59;;;;;;;;;;;;;;;3.52;67.02;102587.97;5033475;28;19917;-67
2022/12/02 03:40:24;;;;;;;;;;;;;;;3.53;67.06;102587.09;5029108;28;19968;-68
2022/12/02 03:42:50;;;;;;;;;;;;;;;3.51;66.91;102581.88;5014144;28;19944;-68
2022/12/02 03:45:15;;;;;;;;;;;;;;;3.51;66.60;102578.44;5032039;28;19921;-67
2022/12/02 03:47:41;;;;;;;;;;;;;;;3.48;66.60;102578.41;5031387;28;19924;-66
2022/12/02 03:50:06;;;;;;;;;;;;;;;3.49;66.56;102570.59;5031884;28;19956;-67
2022/12/02 03:52:32;;;;;;;;;;;;;;;3.50;66.58;102576.69;5014235;28;19980;-68
2022/12/02 03:54:57;;;;;;;;;;;;;;;3.49;66.70;102564.53;5029325;28;20388;-66
2022/12/02 03:57:23;;;;;;;;;;;;;;;3.47;66.74;102577.56;5028423;28;19920;-67
2022/12/02 03:59:48;;;;;;;;;;;;;;;3.50;66.49;102568.88;5031766;28;19913;-67
2022/12/02 04:02:14;;;;;;;;;;;;;;;3.51;66.64;102575.81;5013891;28;19963;-67
2022/12/02 04:04:39;;;;;;;;;;;;;;;3.50;66.36;102577.53;5028996;28;19968;-66
2022/12/02 04:07:04;;;;;;;;;;;;;;;3.49;66.41;102574.94;5029379;28;19931;-66
2022/12/02 04:09:30;;;;;;;;;;;;;;;3.44;66.59;102571.47;5031545;28;19925;-67
2022/12/02 04:11:55;;;;;;;;;;;;;;;3.45;66.59;102574.09;5029383;28;20492;-68
2022/12/02 04:14:21;;;;;;;;;;;;;;;3.45;66.41;102574.09;4999446;28;19931;-65
2022/12/02 04:16:46;;;;;;;;;;;;;;;3.47;66.30;102574.06;4983543;28;19957;-67
2022/12/02 04:19:12;;;;;;;;;;;;;;;3.49;66.20;102573.19;5024499;28;19972;-68
2022/12/02 04:21:37;;;;;;;;;;;;;;;3.50;66.22;102580.16;5030357;28;20927;-68
2022/12/02 04:24:03;;;;;;;;;;;;;;;3.48;66.36;102581.00;5034022;28;19997;-67
2022/12/02 04:26:28;;;;;;;;;;;;;;;3.46;66.35;102574.94;5011141;28;20561;-67
2022/12/02 04:28:53;;;;;;;;;;;;;;;3.41;66.46;102572.31;5027776;28;20346;-66
2022/12/02 04:31:19;;;;;;;;;;;;;;;3.43;66.42;102575.81;5029095;28;19964;-67
2022/12/02 04:33:44;;;;;;;;;;;;;;;3.44;66.35;102572.34;5029735;28;20384;-67
2022/12/02 04:36:09;;;;;;;;;;;;;;;3.39;66.60;102571.47;5031509;28;19917;-67
2022/12/02 04:38:35;;;;;;;;;;;;;;;3.42;66.46;102576.66;5031805;28;19917;-67
2022/12/02 04:41:00;;;;;;;;;;;;;;;3.40;66.45;102564.53;5031878;28;19913;-68
2022/12/02 04:43:25;;;;;;;;;;;;;;;3.40;66.22;102568.00;5028293;28;19929;-67
2022/12/02 04:45:50;;;;;;;;;;;;;;;3.44;66.42;102567.13;5031256;28;19924;-67
2022/12/02 04:48:16;;;;;;;;;;;;;;;3.44;66.22;102567.13;5027243;28;19921;-68
2022/12/02 04:50:41;;;;;;;;;;;;;;;3.42;66.39;102561.06;5027921;28;19991;-67
2022/12/02 04:53:06;;;;;;;;;;;;;;;3.43;66.44;102564.50;5030109;28;20045;-67
2022/12/02 04:55:32;;;;;;;;;;;;;;;3.41;66.25;102566.25;5028410;28;20483;-67
2022/12/02 04:57:57;;;;;;;;;;;;;;;3.35;66.45;102560.19;5034551;28;20010;-67
2022/12/02 05:00:22;;;;;;;;;;;;;;;3.33;66.83;102559.31;5031508;28;19917;-67
2022/12/02 05:02:48;;;;;;;;;;;;;;;3.33;66.70;102554.09;5031208;28;20335;-67
2022/12/02 05:05:13;;;;;;;;;;;;;;;3.33;66.75;102559.31;5027777;28;19925;-67
2022/12/02 05:07:38;;;;;;;;;;;;;;;3.31;67.10;102554.97;5029086;28;20019;-68
2022/12/02 05:10:04;;;;;;;;;;;;;;;3.28;67.01;102550.63;5029369;28;19924;-66
2022/12/02 05:12:30;;;;;;;;;;;;;;;3.25;67.07;102547.16;5028332;28;20312;-68
2022/12/02 05:14:55;;;;;;;;;;;;;;;3.25;67.25;102550.63;5026427;28;19929;-67
2022/12/02 05:17:20;;;;;;;;;;;;;;;3.20;67.02;102549.75;4997108;28;19968;-67
2022/12/02 05:19:46;;;;;;;;;;;;;;;3.22;67.08;102545.41;5029949;28;20414;-66
2022/12/02 05:22:11;;;;;;;;;;;;;;;3.15;67.14;102551.44;5024218;28;19921;-68
2022/12/02 05:24:36;;;;;;;;;;;;;;;3.16;67.02;102550.59;5011429;28;19917;-67
2022/12/02 05:27:02;;;;;;;;;;;;;;;3.12;67.27;102547.13;5012472;28;19940;-66
2022/12/02 05:29:27;;;;;;;;;;;;;;;3.14;67.34;102552.31;5023362;28;20346;-66
2022/12/02 05:31:52;;;;;;;;;;;;;;;3.18;67.11;102554.91;5013023;28;19996;-66
2022/12/02 05:34:18;;;;;;;;;;;;;;;3.19;67.00;102555.81;5025333;28;20373;-67
2022/12/02 05:36:43;;;;;;;;;;;;;;;3.19;67.10;102555.81;5024399;28;19917;-68
2022/12/02 05:39:08;;;;;;;;;;;;;;;3.15;67.11;102557.53;5027197;28;20284;-66
2022/12/02 05:41:34;;;;;;;;;;;;;;;3.18;66.99;102564.47;5025308;28;19965;-66
2022/12/02 05:44:08;;;;;;;;;;;;;;;3.15;67.23;102559.25;5023448;28;20386;-66
2022/12/02 05:46:34;;;;;;;;;;;;;;;3.15;67.45;102560.16;5020747;28;20380;-67
2022/12/02 05:48:59;;;;;;;;;;;;;;;3.16;67.36;102558.41;5023650;28;19931;-67
2022/12/02 05:51:24;;;;;;;;;;;;;;;3.18;67.29;102564.47;5027278;28;20007;-65
2022/12/02 05:53:50;;;;;;;;;;;;;;;3.12;67.51;102561.84;5027818;28;19932;-68
2022/12/02 05:56:23;;;;;;;;;;;;;;;3.15;67.60;102561.84;5002015;28;19931;-66
2022/12/02 05:58:49;;;;;;;;;;;;;;;3.17;67.57;102561.03;5025516;28;19975;-66
2022/12/02 06:01:35;;;;;;;;;;;;;;;3.21;67.41;102564.50;5028793;28;19917;-68
2022/12/02 06:04:00;;;;;;;;;;;;;;;3.23;67.56;102560.16;5026771;28;20028;-67
2022/12/02 06:06:30;;;;;;;;;;;;;;;3.24;67.57;102554.09;5027117;28;20430;-67
2022/12/02 06:08:56;;;;;;;;;;;;;;;3.23;67.52;102567.09;5019691;28;19939;-65
2022/12/02 06:11:28;;;;;;;;;;;;;;;3.25;67.27;102558.44;5028677;28;19917;-65
2022/12/02 06:13:59;;;;;;;;;;;;;;;3.26;67.39;102557.53;5025727;28;19975;-65
2022/12/02 06:16:26;;;;;;;;;;;;;;;3.23;67.35;102562.75;5018309;28;20391;-66
2022/12/02 06:18:52;;;;;;;;;;;;;;;3.24;67.42;102566.22;5021271;28;19917;-66
2022/12/02 06:21:19;;;;;;;;;;;;;;;3.18;67.39;102561.88;5030241;28;19944;-67
2022/12/02 06:23:47;;;;;;;;;;;;;;;3.23;67.46;102567.09;5015810;28;19929;-66
2022/12/02 06:26:13;;;;;;;;;;;;;;;3.23;67.41;102573.16;5022728;28;19917;-68
2022/12/02 06:28:40;;;;;;;;;;;;;;;3.18;67.41;102577.47;5011392;28;20287;-66
2022/12/02 06:31:08;;;;;;;;;;;;;;;3.17;67.40;102573.16;5023604;28;19925;-69
2022/12/02 06:33:36;;;;;;;;;;;;;;;3.05;67.60;102582.66;5023179;28;20210;-68
2022/12/02 06:36:04;;;;;;;;;;;;;;;3.09;67.73;102582.66;5019284;28;19925;-66
2022/12/02 06:38:31;;;;;;;;;;;;;;;3.05;67.60;102577.44;5022703;28;19999;-63
2022/12/02 06:40:59;;;;;;;;;;;;;;;3.05;67.60;102577.44;5025882;28;20341;-67
2022/12/02 06:43:28;;;;;;;;;;;;;;;-147.11;100.00;61570.13;5026700;28;19929;-64
2022/12/02 06:45:54;;;;;;;;;;;;;;;-147.11;100.00;61570.13;5026892;28;19917;-65
2022/12/02 06:48:19;;;;;;;;;;;;;;;-147.11;100.00;61570.13;5024767;28;20413;-66
2022/12/02 06:50:45;;;;;;;;;;;;;;;-147.11;100.00;61570.13;5022536;28;19917;-67
2022/12/02 06:53:10;;;;;;;;;;;;;;;-147.11;100.00;61570.13;5024781;28;20019;-66
2022/12/02 06:55:37;;;;;;;;;;;;;;;-147.11;100.00;61570.13;5028041;28;20487;-66
2022/12/02 06:58:21;;;;;;;;;;;;;;;-147.11;100.00;61570.13;5029414;28;20619;-63
2022/12/02 07:00:46;;;;;;;;;;;;;;;-147.11;100.00;61570.13;5031351;28;19917;-63
2022/12/02 07:03:32;;;;;;;;;;;;;;;-147.11;100.00;61570.13;5027464;28;20011;-64
2022/12/02 07:06:18;;;;;;;;;;;;;;;-147.11;100.00;61570.13;5026077;28;19929;-62
2022/12/02 07:08:44;;;;;;;;;;;;;;;-147.11;100.00;61570.13;5027859;28;19928;-64
2022/12/02 07:11:49;;;;;;;;;;;;;;;-147.11;100.00;61570.13;5030634;28;19925;-63
2022/12/02 07:14:15;;;;;;;;;;;;;;;-147.11;100.00;61570.13;5029360;28;19921;-67
2022/12/02 07:16:41;;;;;;;;;;;;;;;-147.11;100.00;61570.13;5026864;28;19979;-63
2022/12/02 07:19:11;;;;;;;;;;;;;;;-147.11;100.00;61570.13;5028546;28;19975;-60
2022/12/02 07:21:36;;;;;;;;;;;;;;;-147.11;100.00;61570.13;5025671;28;19921;-64
2022/12/02 07:24:02;;;;;;;;;;;;;;;-147.11;100.00;61570.13;5026453;28;19921;-66
2022/12/02 07:26:27;;;;;;;;;;;;;;;3.05;67.60;102577.44;5028756;28;19921;-63
2022/12/02 07:28:57;;;;;;;;;;;;;;;2.96;68.58;102573.94;5028879;28;19975;-70
2022/12/02 07:31:27;;;;;;;;;;;;;;;-147.11;100.00;61570.13;5029108;28;19917;-64
2022/12/02 07:33:52;;;;;;;;;;;;;;;-147.11;52.98;115590.34;5029504;28;19932;-64
2022/12/02 07:36:18;;;;;;;;;;;;;;;3.01;68.30;102565.28;5029975;28;19913;-66
2022/12/02 07:38:45;;;;;;;;;;;;;;;3.01;68.37;102573.09;5029473;28;19923;-63
2022/12/02 07:41:10;;;;;;;;;;;;;;;3.02;68.12;102563.56;5028573;28;20064;-65
2022/12/02 07:43:36;;;;;;;;;;;;;;;2.98;68.19;102562.69;5025245;28;20028;-66
2022/12/02 07:46:01;;;;;;;;;;;;;;;-147.11;100.00;61570.13;5028140;28;20068;-66
2022/12/02 07:48:26;;;;;;;;;;;;;;;-147.11;100.00;61570.13;5029738;28;20281;-64
2022/12/02 07:50:52;;;;;;;;;;;;;;;-147.11;100.00;61570.13;5029074;28;20060;-66
2022/12/02 07:53:17;;;;;;;;;;;;;;;2.98;100.00;79419.34;5029796;28;20277;-63
2022/12/02 07:55:42;;;;;;;;;;;;;;;-147.11;100.00;61570.13;5029312;28;20372;-68
2022/12/02 07:58:08;;;;;;;;;;;;;;;-147.11;68.19;115357.50;5010118;28;19925;-64
2022/12/02 08:00:34;;;;;;;;;;;;;;;3.03;70.61;108767.88;5005970;28;19921;-66
2022/12/02 08:03:00;;;;;;;;;;;;;;;49.96;71.11;110590.84;5024282;28;19933;-64
2022/12/02 08:05:26;;;;;;;;;;;;;;;3.09;68.09;102585.28;5024884;28;20056;-62
2022/12/02 08:07:51;;;;;;;;;;;;;;;3.13;68.04;102582.69;5028706;28;20011;-65
2022/12/02 08:10:17;;;;;;;;;;;;;;;3.17;67.95;102587.03;5028440;28;19924;-67
2022/12/02 08:12:42;;;;;;;;;;;;;;;3.11;68.17;102583.50;5026195;28;19921;-64
2022/12/02 08:15:08;;;;;;;;;;;;;;;3.10;68.06;102577.47;5033149;28;20476;-64
2022/12/02 08:17:34;;;;;;;;;;;;;;;3.12;68.19;102574.84;5030587;28;19933;-64
2022/12/02 08:19:59;;;;;;;;;;;;;;;3.15;68.06;102573.16;5029442;28;19921;-67
2022/12/02 08:22:24;;;;;;;;;;;;;;;3.16;68.02;102571.41;5024955;28;19925;-63
2022/12/02 08:24:49;;;;;;;;;;;;;;;3.16;67.92;102571.41;5029913;28;19921;-64
2022/12/02 08:27:15;;;;;;;;;;;;;;;3.16;67.83;102571.41;5032560;28;19921;-63
2022/12/02 08:29:40;;;;;;;;;;;;;;;3.19;67.74;102574.03;5033466;28;20415;-65
2022/12/02 08:32:05;;;;;;;;;;;;;;;3.22;67.28;102581.84;5028639;28;19925;-68
2022/12/02 08:34:31;;;;;;;;;;;;;;;3.24;67.06;102574.91;5032250;28;19921;-64
2022/12/02 08:36:56;;;;;;;;;;;;;;;3.22;67.23;102575.75;5032942;28;19924;-64
2022/12/02 08:39:21;;;;;;;;;;;;;;;3.26;66.78;102578.34;5032330;28;19921;-62
2022/12/02 08:41:47;;;;;;;;;;;;;;;3.33;66.74;102568.81;5021811;28;20450;-66
2022/12/02 08:44:12;;;;;;;;;;;;;;;3.37;66.51;102567.13;5032553;28;19949;-67
2022/12/02 08:46:37;;;;;;;;;;;;;;;3.34;66.56;102561.03;5027988;28;19999;-65
2022/12/02 08:49:05;;;;;;;;;;;;;;;3.38;66.19;102571.47;5023048;28;19952;-64
2022/12/02 08:51:30;;;;;;;;;;;;;;;3.41;66.20;102579.25;5031655;28;19968;-67
2022/12/02 08:53:55;;;;;;;;;;;;;;;3.38;65.99;102568.88;5033149;28;19933;-64
2022/12/02 08:56:21;;;;;;;;;;;;;;;3.37;66.24;102583.59;5029507;28;20356;-62
2022/12/02 08:58:46;;;;;;;;;;;;;;;3.37;65.91;102574.94;5005013;28;19932;-64
2022/12/02 09:01:11;;;;;;;;;;;;;;;3.39;66.01;102583.63;5029163;28;19924;-65
2022/12/02 09:03:37;;;;;;;;;;;;;;;3.41;65.67;102593.16;5028740;28;20380;-68
2022/12/02 09:06:02;;;;;;;;;;;;;;;3.45;65.82;102591.41;5031589;28;19917;-66
2022/12/02 09:08:27;;;;;;;;;;;;;;;3.48;65.66;102599.22;5031979;28;19929;-65
2022/12/02 09:10:53;;;;;;;;;;;;;;;3.49;65.60;102590.56;5030711;28;19971;-68
2022/12/02 09:13:18;;;;;;;;;;;;;;;3.47;65.32;102600.09;5030246;28;20028;-63
2022/12/02 09:15:43;;;;;;;;;;;;;;;3.50;65.24;102589.69;5026906;28;19921;-63
2022/12/02 09:18:09;;;;;;;;;;;;;;;3.53;64.98;102591.44;5027577;28;19917;-68
2022/12/02 09:20:34;;;;;;;;;;;;;;;3.54;65.09;102588.84;5027202;28;20476;-70
2022/12/02 09:23:00;;;;;;;;;;;;;;;3.56;65.25;102588.84;5029565;28;20502;-65
2022/12/02 09:25:26;;;;;;;;;;;;;;;3.52;64.87;102582.75;5031484;28;20300;-65
2022/12/02 09:27:51;;;;;;;;;;;;;;;3.52;64.97;102593.19;5031926;28;19921;-66
2022/12/02 09:30:16;;;;;;;;;;;;;;;3.48;64.89;102588.81;5033618;28;20392;-64
2022/12/02 09:32:42;;;;;;;;;;;;;;;3.49;64.88;102595.78;5025515;28;19925;-66
2022/12/02 09:35:07;;;;;;;;;;;;;;;3.48;65.08;102583.63;5029815;28;19925;-63
2022/12/02 09:37:32;;;;;;;;;;;;;;;3.47;64.94;102582.75;5027485;28;19913;-65
2022/12/02 09:39:58;;;;;;;;;;;;;;;3.50;64.83;102581.88;5029751;28;19920;-65
2022/12/02 09:42:24;;;;;;;;;;;;;;;3.55;64.92;102590.59;5029854;28;20387;-64
2022/12/02 09:44:49;;;;;;;;;;;;;;;3.55;64.82;102589.69;5029187;28;20446;-64
2022/12/02 09:47:15;;;;;;;;;;;;;;;3.54;64.75;102591.44;5030400;28;19936;-65
2022/12/02 09:49:42;;;;;;;;;;;;;;;3.59;64.78;102584.50;5025524;28;19921;-64
2022/12/02 09:52:14;;;;;;;;;;;;;;;3.59;64.40;102592.31;5028341;28;20339;-66
2022/12/02 09:54:39;;;;;;;;;;;;;;;3.63;64.40;102591.44;5023476;28;20037;-64
2022/12/02 09:57:08;;;;;;;;;;;;;;;3.59;64.53;102581.88;5030248;28;19992;-64
2022/12/02 09:59:33;;;;;;;;;;;;;;;3.59;64.70;102583.63;5029392;28;19917;-65
2022/12/02 10:01:59;;;;;;;;;;;;;;;3.59;64.54;102576.69;5029731;28;19928;-67
2022/12/02 10:04:24;;;;;;;;;;;;;;;3.63;64.41;102568.00;5029887;28;19917;-66
2022/12/02 10:06:49;;;;;;;;;;;;;;;3.65;64.44;102574.09;5027657;28;20008;-63
2022/12/02 10:09:16;;;;;;;;;;;;;;;3.69;64.43;102567.16;5027670;28;20399;-66
2022/12/02 10:11:42;;;;;;;;;;;;;;;3.74;64.19;102564.53;5020937;28;19976;-65
2022/12/02 10:14:10;;;;;;;;;;;;;;;3.79;63.94;102568.03;5026803;28;19925;-62
2022/12/02 10:16:36;;;;;;;;;;;;;;;3.87;63.74;102579.28;5023939;28;20015;-64
2022/12/02 10:19:03;;;;;;;;;;;;;;;3.88;63.41;102575.81;5027094;28;19924;-61
2022/12/02 10:21:29;;;;;;;;;;;;;;;3.89;63.58;102574.97;5032841;28;19925;-63
2022/12/02 10:23:58;;;;;;;;;;;;;;;3.85;63.10;102567.16;5031165;28;20048;-59
2022/12/02 10:26:24;;;;;;;;;;;;;;;3.83;63.35;102564.56;5028123;28;19924;-62
2022/12/02 10:28:58;;;;;;;;;;;;;;;3.76;63.51;102562.81;5026833;28;19921;-65
2022/12/02 10:31:24;;;;;;;;;;;;;;;3.74;63.46;102561.94;5028946;28;19956;-60
2022/12/02 10:34:12;;;;;;;;;;;;;;;3.75;63.48;102564.56;5027382;28;19960;-62
2022/12/02 10:36:39;;;;;;;;;;;;;;;3.71;63.55;102564.53;5027929;28;19979;-61
2022/12/02 10:39:17;;;;;;;;;;;;;;;3.74;63.39;102559.34;5032689;28;19921;-59
2022/12/02 10:41:42;;;;;;;;;;;;;;;3.77;63.34;102564.56;5029265;28;20020;-63
2022/12/02 10:44:12;;;;;;;;;;;;;;;3.78;63.25;102556.72;5028120;28;19999;-60
2022/12/02 10:46:38;;;;;;;;;;;;;;;3.73;62.75;102552.38;5028215;28;20008;-64
2022/12/02 10:49:15;;;;;;;;;;;;;;;3.70;63.14;102552.41;5024993;28;19931;-62
2022/12/02 10:51:40;;;;;;;;;;;;;;;3.65;62.77;102560.19;5028135;28;19924;-63
2022/12/02 10:54:15;;;;;;;;;;;;;;;3.54;62.63;102552.41;5029697;28;19921;-64
2022/12/02 10:56:41;;;;;;;;;;;;;;;3.58;62.55;102543.72;5030086;28;19921;-61
2022/12/02 10:59:09;;;;;;;;;;;;;;;3.54;62.38;102547.19;5029450;28;20292;-65
2022/12/02 11:01:34;;;;;;;;;;;;;;;3.58;62.15;102548.91;5030642;28;19964;-61
2022/12/02 11:03:59;;;;;;;;;;;;;;;3.59;62.14;102545.44;5023689;28;20011;-62
2022/12/02 11:06:25;;;;;;;;;;;;;;;3.58;61.96;102543.72;5027711;28;19945;-60
2022/12/02 11:08:55;;;;;;;;;;;;;;;3.60;62.14;102535.91;5030718;28;19921;-62
2022/12/02 11:11:23;;;;;;;;;;;;;;;3.63;61.96;102525.50;5029012;28;19968;-66
2022/12/02 11:13:52;;;;;;;;;;;;;;;3.66;61.83;102531.56;5024333;28;19925;-66
2022/12/02 11:16:26;;;;;;;;;;;;;;;3.59;61.54;102529.81;5021737;28;19925;-63
2022/12/02 11:19:07;;;;;;;;;;;;;;;3.61;61.45;102529.84;5019240;28;19925;-65
2022/12/02 11:21:34;;;;;;;;;;;;;;;3.57;61.17;102526.34;5022956;28;19917;-64
2022/12/02 11:24:19;;;;;;;;;;;;;;;3.57;61.50;102526.34;5017384;28;20008;-62
2022/12/02 11:26:59;;;;;;;;;;;;;;;3.59;61.18;102532.44;5023605;28;19921;-63
2022/12/02 11:29:41;;;;;;;;;;;;;;;3.54;61.25;102536.78;5026092;28;20520;-61
2022/12/02 11:32:17;;;;;;;;;;;;;;;3.55;61.13;102533.31;5025446;28;21777;-62
2022/12/02 11:34:44;;;;;;;;;;;;;;;3.59;61.15;102527.22;5024861;28;20008;-62
2022/12/02 11:37:25;;;;;;;;;;;;;;;3.60;61.15;102531.56;5024110;28;20007;-62
2022/12/02 11:39:51;;;;;;;;;;;;;;;3.58;61.22;102527.22;5025168;28;21004;-61
2022/12/02 11:42:22;;;;;;;;;;;;;;;3.57;61.56;102523.75;5018559;28;19979;-64
2022/12/02 11:44:47;;;;;;;;;;;;;;;3.53;61.11;102516.81;5023629;28;19925;-62
2022/12/02 11:47:29;;;;;;;;;;;;;;;3.50;61.29;102509.00;5029791;28;19928;-66
2022/12/02 11:49:57;;;;;;;;;;;;;;;3.47;61.31;102504.69;5026295;28;19924;-64
2022/12/02 11:52:23;;;;;;;;;;;;;;;3.49;61.23;102512.47;5028556;28;20439;-64
2022/12/02 11:54:52;;;;;;;;;;;;;;;3.46;61.43;102509.88;5031173;28;19924;-60
2022/12/02 11:57:22;;;;;;;;;;;;;;;3.45;61.27;102511.63;5031135;28;19920;-61
2022/12/02 11:59:48;;;;;;;;;;;;;;;3.37;61.48;102507.28;5029361;28;19924;-65
2022/12/02 12:02:14;;;;;;;;;;;;;;;3.39;61.39;102505.53;5031559;28;19917;-66
2022/12/02 12:04:40;;;;;;;;;;;;;;;3.40;61.48;102502.94;5032438;28;19917;-62
2022/12/02 12:07:06;;;;;;;;;;;;;;;3.39;61.55;102497.72;5033365;28;19927;-64
2022/12/02 12:09:32;;;;;;;;;;;;;;;3.35;61.33;102494.25;5027127;28;19917;-63
2022/12/02 12:12:17;;;;;;;;;;;;;;;3.34;61.41;102496.00;5029234;28;19917;-62
2022/12/02 12:15:02;;;;;;;;;;;;;;;3.33;61.66;102486.44;5031531;28;19917;-64
2022/12/02 12:17:32;;;;;;;;;;;;;;;3.33;61.75;102495.97;5031699;28;20315;-63
2022/12/02 12:19:58;;;;;;;;;;;;;;;3.36;61.88;102498.59;5030557;28;19917;-62
2022/12/02 12:22:25;;;;;;;;;;;;;;;3.35;61.78;102496.84;5030104;28;20019;-64
2022/12/02 12:24:50;;;;;;;;;;;;;;;3.34;61.83;102490.78;5030871;28;19933;-63
2022/12/02 12:27:32;;;;;;;;;;;;;;;3.32;61.73;102495.13;5036975;28;19977;-63
2022/12/02 12:29:57;;;;;;;;;;;;;;;3.37;61.95;102496.88;5031008;28;20000;-62
2022/12/02 12:32:23;;;;;;;;;;;;;;;3.38;61.05;102493.41;5030355;28;19929;-64
2022/12/02 12:34:48;;;;;;;;;;;;;;;3.45;60.91;102497.72;5032938;28;19929;-62
2022/12/02 12:37:13;;;;;;;;;;;;;;;3.51;60.69;102495.13;5028474;28;20320;-62
2022/12/02 12:39:39;;;;;;;;;;;;;;;3.54;60.34;102495.13;5032171;28;20294;-62
2022/12/02 12:42:04;;;;;;;;;;;;;;;3.56;60.30;102493.38;5031185;28;19952;-62
2022/12/02 12:44:29;;;;;;;;;;;;;;;3.59;60.40;102495.97;5032383;28;19917;-64
2022/12/02 12:46:55;;;;;;;;;;;;;;;3.63;59.83;102500.31;5030454;28;19921;-65